createdAt,value
2022-09-04T00:02:31.761Z,13.30
2022-09-04T00:05:25.983Z,13.30
2022-09-04T00:08:29.267Z,13.30
2022-09-04T00:11:08.882Z,13.30
2022-09-04T00:13:48.812Z,13.30
2022-09-04T00:16:33.695Z,13.30
2022-09-04T00:19:15.318Z,13.20
2022-09-04T00:21:51.670Z,13.20
2022-09-04T00:24:25.416Z,13.20
2022-09-04T00:27:13.457Z,13.20
2022-09-04T00:30:07.958Z,13.20
2022-09-04T00:32:46.372Z,13.20
2022-09-04T00:35:25.963Z,13.20
2022-09-04T00:38:03.491Z,13.20
2022-09-04T00:40:37.771Z,13.20
2022-09-04T00:43:14.168Z,13.20
2022-09-04T00:45:47.499Z,13.10
2022-09-04T00:48:45.432Z,13.10
2022-09-04T00:51:33.616Z,13.10
2022-09-04T00:54:20.359Z,13.00
2022-09-04T00:57:14.103Z,13.10
2022-09-04T00:59:50.489Z,13.10
2022-09-04T01:02:45.040Z,13.10
2022-09-04T01:05:24.445Z,13.10
2022-09-04T01:08:04.985Z,13.10
2022-09-04T01:10:39.242Z,13.10
2022-09-04T01:13:25.363Z,13.20
2022-09-04T01:16:25.782Z,13.20
2022-09-04T01:19:02.879Z,13.20
2022-09-04T01:21:33.654Z,13.30
2022-09-04T01:24:31.613Z,13.30
2022-09-04T01:27:09.872Z,13.30
2022-09-04T01:30:10.128Z,13.40
2022-09-04T01:33:06.628Z,13.50
2022-09-04T01:36:01.236Z,13.50
2022-09-04T01:38:35.765Z,13.50
2022-09-04T01:41:19.458Z,13.50
2022-09-04T01:43:47.185Z,13.50
2022-09-04T01:46:37.911Z,13.50
2022-09-04T01:49:25.780Z,13.60
2022-09-04T01:52:31.044Z,13.60
2022-09-04T01:55:28.167Z,13.60
2022-09-04T01:58:30.851Z,13.60
2022-09-04T02:01:21.492Z,13.70
2022-09-04T02:04:18.690Z,13.70
2022-09-04T02:07:10.108Z,13.70
2022-09-04T02:10:12.879Z,13.70
2022-09-04T02:12:59.227Z,13.70
2022-09-04T02:15:33.600Z,13.70
2022-09-04T02:18:20.276Z,13.70
2022-09-04T02:21:11.714Z,13.60
2022-09-04T02:24:00.897Z,13.70
2022-09-04T02:26:57.027Z,13.70
2022-09-04T02:29:44.024Z,13.70
2022-09-04T02:32:25.969Z,13.70
2022-09-04T02:35:35.290Z,13.70
2022-09-04T02:38:08.956Z,13.70
2022-09-04T02:40:59.515Z,13.70
2022-09-04T02:43:28.683Z,13.70
2022-09-04T02:46:16.004Z,13.70
2022-09-04T02:49:03.432Z,13.70
2022-09-04T02:51:40.284Z,13.80
2022-09-04T02:54:50.818Z,13.80
2022-09-04T02:57:27.419Z,13.80
2022-09-04T03:00:24.460Z,13.80
2022-09-04T03:03:02.698Z,13.90
2022-09-04T03:05:35.036Z,13.80
2022-09-04T03:08:08.968Z,13.80
2022-09-04T03:11:04.969Z,13.80
2022-09-04T03:13:35.504Z,13.70
2022-09-04T03:16:29.060Z,13.70
2022-09-04T03:19:36.944Z,13.60
2022-09-04T03:22:43.399Z,13.60
2022-09-04T03:25:30.569Z,13.60
2022-09-04T03:27:58.047Z,13.60
2022-09-04T03:30:27.295Z,13.40
2022-09-04T03:33:13.344Z,13.60
2022-09-04T03:35:44.321Z,13.50
2022-09-04T03:38:30.273Z,13.40
2022-09-04T03:41:27.684Z,13.40
2022-09-04T03:44:28.292Z,13.40
2022-09-04T03:47:16.800Z,13.30
2022-09-04T03:50:03.012Z,13.30
2022-09-04T03:52:52.784Z,13.20
2022-09-04T03:55:33.654Z,13.20
2022-09-04T03:58:40.839Z,13.20
2022-09-04T04:01:42.890Z,13.20
2022-09-04T04:05:00.262Z,13.20
2022-09-04T04:07:50.881Z,13.20
2022-09-04T04:10:37.683Z,13.20
2022-09-04T04:13:33.504Z,13.10
2022-09-04T04:16:12.838Z,13.10
2022-09-04T04:19:11.077Z,13.20
2022-09-04T04:22:17.283Z,13.20
2022-09-04T04:25:02.164Z,13.20
2022-09-04T04:27:45.006Z,13.20
2022-09-04T04:30:15.071Z,13.20
2022-09-04T04:33:13.544Z,13.20
2022-09-04T04:35:54.823Z,13.20
2022-09-04T04:38:36.441Z,13.20
2022-09-04T04:41:11.960Z,13.20
2022-09-04T04:44:12.255Z,13.20
2022-09-04T04:47:06.297Z,13.20
2022-09-04T04:49:59.004Z,13.20
2022-09-04T04:52:45.891Z,13.20
2022-09-04T04:55:22.150Z,13.10
2022-09-04T04:58:20.733Z,13.20
2022-09-04T05:01:22.741Z,13.30
2022-09-04T05:04:31.025Z,13.30
2022-09-04T05:07:34.700Z,13.30
2022-09-04T05:10:17.256Z,13.40
2022-09-04T05:13:12.001Z,13.40
2022-09-04T05:16:09.360Z,13.40
2022-09-04T05:18:54.488Z,13.50
2022-09-04T05:21:25.385Z,13.40
2022-09-04T05:24:14.610Z,13.50
2022-09-04T05:26:55.492Z,13.50
2022-09-04T05:29:58.263Z,13.50
2022-09-04T05:32:37.947Z,13.60
2022-09-04T05:35:35.610Z,13.60
2022-09-04T05:38:16.066Z,13.50
2022-09-04T05:41:08.245Z,13.60
2022-09-04T05:43:57.606Z,13.60
2022-09-04T05:47:13.127Z,13.70
2022-09-04T05:50:00.562Z,13.70
2022-09-04T05:53:02.314Z,13.80
2022-09-04T05:55:51.377Z,13.90
2022-09-04T05:59:10.270Z,14.00
2022-09-04T06:01:53.373Z,14.10
2022-09-04T06:04:34.998Z,14.20
2022-09-04T06:07:19.225Z,14.40
2022-09-04T06:10:15.156Z,14.50
2022-09-04T06:13:20.157Z,14.60
2022-09-04T06:16:06.360Z,14.70
2022-09-04T06:18:57.127Z,14.80
2022-09-04T06:21:33.707Z,14.90
2022-09-04T06:24:24.751Z,15.00
2022-09-04T06:27:21.159Z,15.10
2022-09-04T06:30:10.192Z,15.20
2022-09-04T06:32:56.061Z,15.40
2022-09-04T06:35:37.416Z,15.50
2022-09-04T06:38:19.940Z,15.60
2022-09-04T06:41:02.521Z,15.70
2022-09-04T06:43:51.001Z,15.80
2022-09-04T06:46:46.406Z,16.00
2022-09-04T06:49:58.974Z,16.10
2022-09-04T06:53:04.011Z,16.20
2022-09-04T06:56:10.400Z,16.40
2022-09-04T06:59:01.021Z,16.50
2022-09-04T07:02:00.520Z,16.60
2022-09-04T07:04:40.491Z,16.80
2022-09-04T07:07:16.651Z,17.00
2022-09-04T07:09:49.037Z,17.00
2022-09-04T07:12:39.664Z,17.10
2022-09-04T07:15:29.699Z,17.20
2022-09-04T07:18:30.942Z,17.30
2022-09-04T07:21:41.135Z,17.40
2022-09-04T07:24:39.468Z,17.60
2022-09-04T07:27:36.414Z,17.70
2022-09-04T07:30:25.958Z,17.70
2022-09-04T07:33:15.261Z,17.80
2022-09-04T07:35:59.198Z,17.80
2022-09-04T07:38:43.649Z,17.90
2022-09-04T07:42:05.289Z,18.00
2022-09-04T07:44:44.980Z,18.10
2022-09-04T07:47:21.698Z,18.20
2022-09-04T07:50:27.751Z,18.30
2022-09-04T07:53:19.786Z,18.30
2022-09-04T07:56:00.483Z,18.50
2022-09-04T07:58:52.508Z,18.60
2022-09-04T08:01:41.238Z,18.70
2022-09-04T08:04:38.307Z,18.80
2022-09-04T08:07:13.967Z,18.90
2022-09-04T08:09:58.580Z,19.10
2022-09-04T08:12:48.757Z,19.10
2022-09-04T08:15:25.796Z,19.20
2022-09-04T08:18:20.200Z,19.30
2022-09-04T08:21:21.385Z,19.40
2022-09-04T08:24:26.683Z,19.40
2022-09-04T08:27:21.817Z,19.40
2022-09-04T08:30:04.422Z,19.60
2022-09-04T08:32:43.632Z,19.70
2022-09-04T08:35:42.548Z,19.80
2022-09-04T08:38:47.744Z,19.80
2022-09-04T08:41:41.771Z,19.90
2022-09-04T08:44:36.969Z,20.00
2022-09-04T08:47:30.035Z,20.10
2022-09-04T08:50:18.789Z,20.30
2022-09-04T08:53:18.067Z,20.40
2022-09-04T08:56:18.528Z,20.40
2022-09-04T08:59:11.442Z,20.50
2022-09-04T09:02:07.863Z,20.60
2022-09-04T09:05:17.070Z,20.70
2022-09-04T09:08:15.530Z,20.70
2022-09-04T09:11:02.277Z,20.80
2022-09-04T09:13:29.449Z,20.90
2022-09-04T09:16:20.017Z,20.90
2022-09-04T09:19:12.316Z,20.90
2022-09-04T09:21:45.583Z,21.10
2022-09-04T09:24:35.052Z,21.00
2022-09-04T09:27:11.733Z,21.20
2022-09-04T09:30:02.802Z,21.10
2022-09-04T09:33:04.215Z,21.20
2022-09-04T09:36:01.956Z,21.30
2022-09-04T09:38:38.916Z,21.40
2022-09-04T09:41:37.733Z,21.60
2022-09-04T09:44:33.471Z,21.70
2022-09-04T09:47:25.829Z,21.80
2022-09-04T09:50:21.786Z,21.80
2022-09-04T09:53:26.341Z,21.80
2022-09-04T09:56:41.324Z,21.70
2022-09-04T09:59:17.941Z,21.90
2022-09-04T10:02:16.574Z,21.90
2022-09-04T10:05:13.863Z,22.00
2022-09-04T10:08:11.874Z,22.00
2022-09-04T10:11:17.996Z,22.10
2022-09-04T10:14:16.681Z,22.30
2022-09-04T10:17:14.649Z,22.50
2022-09-04T10:19:57.740Z,22.60
2022-09-04T10:23:04.027Z,22.60
2022-09-04T10:25:49.756Z,22.80
2022-09-04T10:28:59.417Z,22.90
2022-09-04T10:31:26.970Z,22.70
2022-09-04T10:34:28.833Z,22.60
2022-09-04T10:37:25.295Z,22.50
2022-09-04T10:40:39.618Z,22.60
2022-09-04T10:43:27.852Z,22.60
2022-09-04T10:46:06.974Z,22.80
2022-09-04T10:49:00.227Z,23.00
2022-09-04T10:51:46.015Z,23.20
2022-09-04T10:54:48.073Z,23.40
2022-09-04T10:57:21.524Z,23.50
2022-09-04T11:00:07.917Z,23.50
2022-09-04T11:03:03.290Z,23.60
2022-09-04T11:05:51.768Z,23.70
2022-09-04T11:08:36.094Z,23.60
2022-09-04T11:11:13.278Z,23.70
2022-09-04T11:13:57.002Z,23.90
2022-09-04T11:16:39.199Z,24.10
2022-09-04T11:19:28.881Z,24.30
2022-09-04T11:22:27.340Z,24.50
2022-09-04T11:25:33.307Z,24.50
2022-09-04T11:28:34.924Z,24.30
2022-09-04T11:31:39.885Z,24.30
2022-09-04T11:34:42.617Z,24.20
2022-09-04T11:37:47.112Z,24.10
2022-09-04T11:41:01.482Z,23.80
2022-09-04T11:44:07.495Z,23.80
2022-09-04T11:47:23.320Z,23.50
2022-09-04T11:50:06.428Z,23.50
2022-09-04T11:53:02.615Z,23.20
2022-09-04T11:55:52.893Z,23.30
2022-09-04T11:58:47.195Z,23.50
2022-09-04T12:01:26.951Z,23.70
2022-09-04T12:04:10.342Z,23.70
2022-09-04T12:07:05.680Z,23.50
2022-09-04T12:09:44.057Z,23.60
2022-09-04T12:12:23.121Z,23.60
2022-09-04T12:15:12.173Z,23.60
2022-09-04T12:18:08.366Z,23.80
2022-09-04T12:20:57.836Z,24.10
2022-09-04T12:23:50.903Z,24.30
2022-09-04T12:26:29.948Z,24.60
2022-09-04T12:29:27.075Z,24.90
2022-09-04T12:32:09.350Z,24.90
2022-09-04T12:35:04.339Z,25.10
2022-09-04T12:38:06.645Z,25.20
2022-09-04T12:40:52.654Z,25.30
2022-09-04T12:43:55.950Z,25.50
2022-09-04T12:46:55.914Z,25.60
2022-09-04T12:49:51.395Z,25.90
2022-09-04T12:52:21.475Z,26.10
2022-09-04T12:55:14.700Z,26.00
2022-09-04T12:58:17.626Z,25.90
2022-09-04T13:01:08.497Z,25.70
2022-09-04T13:03:59.945Z,25.70
2022-09-04T13:06:38.717Z,25.40
2022-09-04T13:09:24.443Z,25.10
2022-09-04T13:12:11.090Z,24.80
2022-09-04T13:14:45.928Z,24.50
2022-09-04T13:17:19.593Z,24.40
2022-09-04T13:20:06.003Z,24.60
2022-09-04T13:22:57.916Z,24.70
2022-09-04T13:25:27.225Z,24.80
2022-09-04T13:27:57.488Z,24.80
2022-09-04T13:30:26.546Z,24.60
2022-09-04T13:32:58.655Z,24.60
2022-09-04T13:35:44.519Z,24.60
2022-09-04T13:38:58.496Z,24.60
2022-09-04T13:41:33.081Z,24.60
2022-09-04T13:44:24.433Z,24.40
2022-09-04T13:47:14.033Z,24.20
2022-09-04T13:49:56.434Z,24.10
2022-09-04T13:52:32.419Z,24.10
2022-09-04T13:55:28.826Z,24.20
2022-09-04T13:58:10.456Z,24.30
2022-09-04T14:00:46.219Z,24.20
2022-09-04T14:03:39.587Z,24.10
2022-09-04T14:06:14.733Z,24.20
2022-09-04T14:08:43.961Z,24.40
2022-09-04T14:11:39.300Z,24.50
2022-09-04T14:14:30.894Z,24.60
2022-09-04T14:16:59.944Z,24.50
2022-09-04T14:20:05.131Z,24.40
2022-09-04T14:23:20.774Z,24.50
2022-09-04T14:26:26.569Z,24.60
2022-09-04T14:29:15.944Z,24.80
2022-09-04T14:31:56.620Z,24.90
2022-09-04T14:35:08.473Z,25.00
2022-09-04T14:38:11.181Z,25.10
2022-09-04T14:40:56.753Z,25.20
2022-09-04T14:43:34.940Z,25.00
2022-09-04T14:46:07.386Z,25.00
2022-09-04T14:48:40.368Z,25.10
2022-09-04T14:51:35.384Z,25.20
2022-09-04T14:54:03.882Z,25.30
2022-09-04T14:56:50.516Z,25.10
2022-09-04T14:59:35.672Z,25.10
2022-09-04T15:02:08.996Z,25.10
2022-09-04T15:04:47.095Z,25.10
2022-09-04T15:07:25.010Z,25.10
2022-09-04T15:09:54.805Z,25.00
2022-09-04T15:12:34.437Z,25.10
2022-09-04T15:15:32.696Z,25.20
2022-09-04T15:18:23.890Z,25.10
2022-09-04T15:21:02.176Z,25.10
2022-09-04T15:23:48.062Z,25.10
2022-09-04T15:26:34.409Z,25.00
2022-09-04T15:29:19.084Z,24.90
2022-09-04T15:31:46.741Z,24.90
2022-09-04T15:34:24.484Z,24.90
2022-09-04T15:36:51.919Z,25.00
2022-09-04T15:39:32.565Z,25.00
2022-09-04T15:42:00.138Z,24.90
2022-09-04T15:44:42.580Z,25.00
2022-09-04T15:47:42.440Z,24.90
2022-09-04T15:50:32.696Z,24.90
2022-09-04T15:53:27.216Z,25.00
2022-09-04T15:56:09.323Z,25.00
2022-09-04T15:58:43.193Z,25.00
2022-09-04T16:01:23.266Z,25.00
2022-09-04T16:03:52.223Z,25.00
2022-09-04T16:06:27.129Z,25.00
2022-09-04T16:08:58.183Z,24.90
2022-09-04T16:11:34.301Z,24.90
2022-09-04T16:14:11.625Z,24.90
2022-09-04T16:16:49.364Z,24.90
2022-09-04T16:19:22.796Z,24.80
2022-09-04T16:22:05.710Z,24.80
2022-09-04T16:24:40.972Z,24.80
2022-09-04T16:27:14.052Z,24.80
2022-09-04T16:29:51.008Z,24.70
2022-09-04T16:32:24.965Z,24.60
2022-09-04T16:34:57.980Z,24.50
2022-09-04T16:37:34.853Z,24.50
2022-09-04T16:40:11.801Z,24.50
2022-09-04T16:42:47.353Z,24.40
2022-09-04T16:45:21.156Z,24.40
2022-09-04T16:47:55.226Z,24.40
2022-09-04T16:50:46.618Z,24.30
2022-09-04T16:53:19.292Z,24.30
2022-09-04T16:55:58.655Z,24.30
2022-09-04T16:58:39.895Z,24.20
2022-09-04T17:01:19.822Z,24.20
2022-09-04T17:04:13.549Z,24.20
2022-09-04T17:06:44.636Z,24.10
2022-09-04T17:09:32.143Z,24.10
2022-09-04T17:12:17.415Z,24.00
2022-09-04T17:15:06.548Z,24.00
2022-09-04T17:17:41.045Z,24.00
2022-09-04T17:22:26.365Z,24.10
2022-09-04T17:29:05.066Z,24.10
2022-09-04T17:29:19.376Z,24.00
2022-09-04T17:29:36.049Z,23.90
2022-09-04T17:33:19.868Z,23.70
2022-09-04T17:38:38.613Z,23.50
2022-09-04T17:40:51.767Z,23.30
2022-09-04T17:41:59.441Z,23.10
2022-09-04T17:45:03.219Z,22.90
2022-09-04T17:47:42.533Z,22.60
2022-09-04T17:50:17.132Z,22.50
2022-09-04T17:52:56.577Z,22.30
2022-09-04T17:55:25.716Z,22.20
2022-09-04T17:58:26.860Z,22.00
2022-09-04T18:01:14.530Z,21.90
2022-09-04T18:04:27.072Z,21.80
2022-09-04T18:07:33.619Z,21.50
2022-09-04T18:10:19.211Z,21.40
2022-09-04T18:13:06.159Z,21.20
2022-09-04T18:15:42.925Z,21.00
2022-09-04T18:18:36.503Z,20.90
2022-09-04T18:21:16.574Z,20.80
2022-09-04T18:24:09.755Z,20.70
2022-09-04T18:27:11.579Z,20.60
2022-09-04T18:32:29.042Z,20.40
2022-09-04T18:37:11.415Z,20.30
2022-09-04T18:37:23.201Z,20.20
2022-09-04T18:39:41.617Z,20.10
2022-09-04T18:48:39.629Z,20.00
2022-09-04T18:50:31.761Z,19.90
2022-09-04T18:50:38.248Z,19.80
2022-09-04T18:51:30.771Z,19.70
2022-09-04T18:54:12.069Z,19.60
2022-09-04T18:56:44.411Z,19.50
2022-09-04T18:59:28.265Z,19.40
2022-09-04T19:02:40.657Z,19.40
2022-09-04T19:05:15.708Z,19.30
2022-09-04T19:08:02.115Z,19.30
2022-09-04T19:10:47.174Z,19.20
2022-09-04T19:13:42.252Z,19.10
2022-09-04T19:16:20.183Z,19.00
2022-09-04T19:19:04.696Z,19.00
2022-09-04T19:21:46.321Z,18.90
2022-09-04T19:24:38.103Z,18.80
2022-09-04T19:27:21.988Z,18.70
2022-09-04T19:30:18.250Z,18.60
2022-09-04T19:33:15.374Z,18.60
2022-09-04T19:35:42.643Z,18.50
2022-09-04T19:42:14.171Z,18.50
2022-09-04T19:46:00.852Z,18.40
2022-09-04T19:46:08.364Z,18.40
2022-09-04T19:47:37.455Z,18.30
2022-09-04T19:53:18.395Z,18.30
2022-09-04T19:53:38.797Z,18.20
2022-09-04T19:56:29.295Z,18.10
2022-09-04T19:59:05.924Z,18.10
2022-09-04T20:01:52.149Z,18.00
2022-09-04T20:04:46.936Z,18.00
2022-09-04T20:07:37.205Z,18.00
2022-09-04T20:10:20.151Z,17.90
2022-09-04T20:12:55.812Z,17.80
2022-09-04T20:15:31.564Z,17.80
2022-09-04T20:18:08.425Z,17.70
2022-09-04T20:21:04.211Z,17.60
2022-09-04T20:23:46.687Z,17.60
2022-09-04T20:26:21.291Z,17.60
2022-09-04T20:28:58.452Z,17.60
2022-09-04T20:31:38.924Z,17.60
2022-09-04T20:34:20.866Z,17.50
2022-09-04T20:36:57.608Z,17.40
2022-09-04T20:39:52.817Z,17.40
2022-09-04T20:42:27.649Z,17.30
2022-09-04T20:47:35.165Z,17.20
2022-09-04T20:52:43.430Z,17.20
2022-09-04T20:52:53.858Z,17.10
2022-09-04T20:54:06.673Z,17.10
2022-09-04T20:59:21.028Z,17.00
2022-09-04T21:03:10.465Z,16.90
2022-09-04T21:03:28.206Z,16.90
2022-09-04T21:06:07.475Z,16.90
2022-09-04T21:09:05.942Z,16.90
2022-09-04T21:11:49.988Z,16.80
2022-09-04T21:14:20.992Z,16.80
2022-09-04T21:17:01.996Z,16.80
2022-09-04T21:20:22.030Z,16.60
2022-09-04T21:22:55.096Z,16.70
2022-09-04T21:25:28.465Z,16.70
2022-09-04T21:28:19.868Z,16.70
2022-09-04T21:31:12.803Z,16.60
2022-09-04T21:34:15.569Z,16.60
2022-09-04T21:36:59.711Z,16.60
2022-09-04T21:39:47.059Z,16.60
2022-09-04T21:42:17.179Z,16.60
2022-09-04T21:45:06.632Z,16.60
2022-09-04T21:48:01.700Z,16.50
2022-09-04T21:50:48.591Z,16.50
2022-09-04T21:53:27.828Z,16.50
2022-09-04T22:01:06.169Z,16.40
2022-09-04T22:02:42.248Z,16.40
2022-09-04T22:02:52.562Z,16.40
2022-09-04T22:05:32.671Z,16.30
2022-09-04T22:11:46.601Z,16.30
2022-09-04T22:13:42.210Z,16.30
2022-09-04T22:14:13.891Z,16.30
2022-09-04T22:16:56.482Z,16.20
2022-09-04T22:19:43.991Z,16.20
2022-09-04T22:22:39.524Z,16.20
2022-09-04T22:25:19.435Z,16.20
2022-09-04T22:28:08.596Z,16.20
2022-09-04T22:30:55.831Z,16.20
2022-09-04T22:34:27.448Z,16.20
2022-09-04T22:37:12.939Z,16.10
2022-09-04T22:40:17.623Z,16.10
2022-09-04T22:42:56.304Z,16.00
2022-09-04T22:45:23.741Z,16.00
2022-09-04T22:48:00.023Z,16.00
2022-09-04T22:50:50.218Z,16.00
2022-09-04T22:53:55.131Z,15.90
2022-09-04T22:56:37.489Z,15.90
2022-09-04T22:59:27.351Z,15.90
2022-09-04T23:02:54.093Z,15.90
2022-09-04T23:06:18.917Z,15.90
2022-09-04T23:13:46.936Z,15.80
2022-09-04T23:14:03.083Z,15.80
2022-09-04T23:15:34.344Z,15.70
2022-09-04T23:22:44.413Z,15.70
2022-09-04T23:26:38.631Z,15.70
2022-09-04T23:26:49.803Z,15.70
2022-09-04T23:28:21.448Z,15.60
2022-09-04T23:31:35.087Z,15.60
2022-09-04T23:34:27.872Z,15.50
2022-09-04T23:37:16.658Z,15.50
2022-09-04T23:40:10.401Z,15.50
2022-09-04T23:42:59.211Z,15.50
2022-09-04T23:45:26.683Z,15.50
2022-09-04T23:48:12.808Z,15.50
2022-09-04T23:50:58.654Z,15.40
2022-09-04T23:53:35.765Z,15.30
2022-09-04T23:56:08.932Z,15.50
2022-09-04T23:59:18.957Z,15.30
